Airfield :
LOGIN :

Register | Disclaimer

   EN    FR    IT 

 










Legend :    VFR   Marginal VFR   IFR   Intensive IFR   Very Intensive IFR
Visi :
Ceiling :
>= 8 km
>= 3000ft
5 to 8 km
1000 to 3000 ft
1500m to 5 km
500 to 1000 ft
800 to 1500m
200 to 500 ft
< 800m
< 200 ft
Symbols :   Thunderstorms  Fog  Heavy snow  Heavy precipitations  Wind > 20 kt
SIGMETs :     Misc.  Thunderstorms  Icing  Turbulence  Mountain Waves  Volcanic Ashes






- Airport Elevation : 174 ft
- IATA code : RYG


ENRY - Moss , Rygge

CURRENT METAR :
  • 131950Z AUTO 08004KT 9999NDV NCD 09/08 Q1006

EXPIRED METARs :
  • 131920Z AUTO 12006KT 9999NDV NCD 09/08 Q1006
  • 131850Z AUTO 13006KT 9000NDV FEW010/// SCT055/// 09/08 Q1007
  • 131820Z AUTO 13005KT 9999NDV FEW009/// SCT053/// 09/08 Q1007
  • 131750Z AUTO 13005KT 9999NDV BKN007/// BKN009/// 10/09 Q1007
  • 131720Z AUTO 16005KT 9999NDV FEW008/// 09/08 Q1007

TAF TAF ENRY
Valid from the 13 at 18:00 until the 14 at 18:00 UTC


1318/1418 VRB07KT 9999 SCT008 BKN100
PROB40 1318/1322 BKN008
BECMG 1320/1322 12012KT
TEMPO 1322/1406 RA BKN012
BECMG 1400/1402 03015KT
TEMPO 1402/1408 02020G30KT
BECMG 1410/1413 VRB07KT



MET'MAP, your aeronautical weather chart ! - Copyright ORBIFLY December 2007 - Disclaimer

ORBIFLY MET'MAP TEAM :

Programming & Development : Alexandra Zaïnal
Concept & Development : Baudouin d'Aumeries
Co-Development & Prog : Marc-Olivier Méhu
Technical & hardware support : Manuel Goepfert

Contact : metmap@orbifly.com




SOURCES & CREDITS :

   NOAA